Meridien — FT2092 — position and weather

sailwx.info

Track history (hours):
 
Tides and Currents Weather Stations Pressure Air Temp Water Temp Dewpoint Dewpoint Depression Visibility Wind Speed Wind Dir Waves Ship Positions

Meridien

Last reported at 2016-Aug-25 07:21 UTC. Time now 2016-Aug-25 11:27 UTC.
Position N 43°15' E 004°48'.

Length 21 m.

MMSI: 227321780.

Date/timePositionNaut miles runAvg speedWind from/ knotsBaromVisibWave heightAir tempDewpointWater temp
2016-Aug-25 07:21N 43°15' E 004°48'11 1.8
2016-Aug-25 01:22N 43°23' E 004°59'1 0.1
2016-Aug-24 16:33N 43°24' E 004°59'0 0.3
2016-Aug-24 15:33N 43°24' E 004°59'0 0.0
2016-Aug-24 14:33N 43°24' E 004°59'4 1.1
2016-Aug-24 10:29N 43°20' E 004°59'0 0.1
2016-Aug-24 08:18N 43°20' E 004°59'6 5.0
2016-Aug-24 07:09N 43°18' E 004°51'910.7
2016-Aug-24 06:20N 43°17' E 004°39'15 3.2
2016-Aug-24 01:33N 43°23' E 004°59'1 0.1
2016-Aug-23 15:15N 43°24' E 004°60'0 0.0
2016-Aug-23 14:33N 43°24' E 004°60'9 1.6
2016-Aug-23 09:04N 43°15' E 004°58'6 4.0
2016-Aug-23 07:34N 43°15' E 004°50'8 1.4
2016-Aug-23 01:32N 43°21' E 004°57'3 0.3
2016-Aug-22 14:33N 43°24' E 004°60'  
2016-Aug-19 14:33N 43°24' E 004°60'5 1.2
2016-Aug-19 10:26N 43°19' E 004°59'1 0.9
2016-Aug-19 09:30N 43°20' E 004°58'2 2.0
2016-Aug-19 08:26N 43°19' E 004°55'3 3.1
2016-Aug-19 07:30N 43°19' E 004°59'4 0.7
2016-Aug-19 01:31N 43°24' E 004°59'1 0.1
2016-Aug-18 15:33N 43°24' E 004°60'0 0.0
2016-Aug-18 14:33N 43°24' E 004°60'5 2.1
2016-Aug-18 12:13N 43°19' E 004°60'1 0.7
2016-Aug-18 10:30N 43°20' E 004°58'4 0.4
2016-Aug-18 01:33N 43°24' E 004°59'0 0.0
2016-Aug-17 15:33N 43°24' E 004°59'0 0.4
2016-Aug-17 14:33N 43°24' E 004°60'3 2.5
2016-Aug-17 13:33N 43°22' E 004°59'2 0.2
2016-Aug-17 01:33N 43°24' E 004°59'0 0.0
2016-Aug-16 15:34N 43°24' E 004°60'0 0.0
2016-Aug-16 14:34N 43°24' E 004°60'19 2.7
2016-Aug-16 07:28N 43°05' E 004°53'4 3.6
2016-Aug-16 06:29N 43°05' E 004°48'8 2.9
2016-Aug-16 03:33N 43°12' E 004°54'6 5.3
2016-Aug-16 02:27N 43°18' E 004°57'  
Track history (hours):
 
Tides and Currents Weather Stations Pressure Air Temp Water Temp Dewpoint Dewpoint Depression Visibility Wind Speed Wind Dir Waves Ship Positions

Meridien

Last reported at 2016-Aug-25 07:21 UTC. Time now 2016-Aug-25 11:27 UTC.
Position N 43°15' E 004°48'.

Length 21 m.

MMSI: 227321780.

Date/timePositionNaut miles runAvg speedWind from/ knotsBaromVisibWave heightAir tempDewpointWater temp
2016-Aug-25 07:21N 43°15' E 004°48'11 1.8
2016-Aug-25 01:22N 43°23' E 004°59'1 0.1
2016-Aug-24 16:33N 43°24' E 004°59'0 0.3
2016-Aug-24 15:33N 43°24' E 004°59'0 0.0
2016-Aug-24 14:33N 43°24' E 004°59'4 1.1
2016-Aug-24 10:29N 43°20' E 004°59'0 0.1
2016-Aug-24 08:18N 43°20' E 004°59'6 5.0
2016-Aug-24 07:09N 43°18' E 004°51'910.7
2016-Aug-24 06:20N 43°17' E 004°39'15 3.2
2016-Aug-24 01:33N 43°23' E 004°59'1 0.1
2016-Aug-23 15:15N 43°24' E 004°60'0 0.0
2016-Aug-23 14:33N 43°24' E 004°60'9 1.6
2016-Aug-23 09:04N 43°15' E 004°58'6 4.0
2016-Aug-23 07:34N 43°15' E 004°50'8 1.4
2016-Aug-23 01:32N 43°21' E 004°57'3 0.3
2016-Aug-22 14:33N 43°24' E 004°60'  
2016-Aug-19 14:33N 43°24' E 004°60'5 1.2
2016-Aug-19 10:26N 43°19' E 004°59'1 0.9
2016-Aug-19 09:30N 43°20' E 004°58'2 2.0
2016-Aug-19 08:26N 43°19' E 004°55'3 3.1
2016-Aug-19 07:30N 43°19' E 004°59'4 0.7
2016-Aug-19 01:31N 43°24' E 004°59'1 0.1
2016-Aug-18 15:33N 43°24' E 004°60'0 0.0
2016-Aug-18 14:33N 43°24' E 004°60'5 2.1
2016-Aug-18 12:13N 43°19' E 004°60'1 0.7
2016-Aug-18 10:30N 43°20' E 004°58'4 0.4
2016-Aug-18 01:33N 43°24' E 004°59'0 0.0
2016-Aug-17 15:33N 43°24' E 004°59'0 0.4
2016-Aug-17 14:33N 43°24' E 004°60'3 2.5
2016-Aug-17 13:33N 43°22' E 004°59'2 0.2
2016-Aug-17 01:33N 43°24' E 004°59'0 0.0
2016-Aug-16 15:34N 43°24' E 004°60'0 0.0
2016-Aug-16 14:34N 43°24' E 004°60'19 2.7
2016-Aug-16 07:28N 43°05' E 004°53'4 3.6
2016-Aug-16 06:29N 43°05' E 004°48'8 2.9
2016-Aug-16 03:33N 43°12' E 004°54'6 5.3
2016-Aug-16 02:27N 43°18' E 004°57'  

Dump ship's entire track history